createdAt,value
2022-10-11T00:01:03.435Z,9.34
2022-10-11T00:03:40.374Z,9.44
2022-10-11T00:06:09.754Z,9.52
2022-10-11T00:08:37.427Z,9.61
2022-10-11T00:11:08.527Z,9.66
2022-10-11T00:13:37.625Z,9.70
2022-10-11T00:16:12.197Z,9.71
2022-10-11T00:18:41.621Z,9.69
2022-10-11T00:21:13.539Z,9.63
2022-10-11T00:23:43.169Z,9.56
2022-10-11T00:26:12.098Z,9.48
2022-10-11T00:28:41.387Z,9.41
2022-10-11T00:31:14.823Z,9.34
2022-10-11T00:33:42.673Z,9.29
2022-10-11T00:36:14.788Z,9.23
2022-10-11T00:38:45.025Z,9.18
2022-10-11T00:41:14.531Z,9.12
2022-10-11T00:43:42.296Z,9.04
2022-10-11T00:46:16.050Z,8.96
2022-10-11T00:48:54.744Z,8.91
2022-10-11T00:51:42.344Z,8.88
2022-10-11T00:54:15.695Z,8.86
2022-10-11T00:56:49.837Z,8.85
2022-10-11T00:59:24.925Z,8.82
2022-10-11T01:01:54.002Z,8.80
2022-10-11T01:04:22.949Z,8.78
2022-10-11T01:06:52.901Z,8.76
2022-10-11T01:09:23.164Z,8.73
2022-10-11T01:11:54.087Z,8.71
2022-10-11T01:14:43.945Z,8.71
2022-10-11T01:17:41.483Z,8.71
2022-10-11T01:20:17.928Z,8.71
2022-10-11T01:23:26.873Z,8.73
2022-10-11T01:26:03.712Z,8.78
2022-10-11T01:28:50.472Z,8.83
2022-10-11T01:31:36.156Z,8.89
2022-10-11T01:34:23.736Z,8.96
2022-10-11T01:37:05.734Z,9.03
2022-10-11T01:39:43.217Z,9.11
2022-10-11T01:42:13.854Z,9.18
2022-10-11T01:44:46.489Z,9.25
2022-10-11T01:47:14.238Z,9.30
2022-10-11T01:49:44.115Z,9.36
2022-10-11T01:52:12.979Z,9.42
2022-10-11T01:55:09.487Z,9.45
2022-10-11T01:58:06.675Z,9.51
2022-10-11T02:01:05.753Z,9.57
2022-10-11T02:03:56.962Z,9.63
2022-10-11T02:06:33.875Z,9.68
2022-10-11T02:09:30.438Z,9.73
2022-10-11T02:12:08.404Z,9.79
2022-10-11T02:14:42.017Z,9.83
2022-10-11T02:17:16.939Z,9.87
2022-10-11T02:19:50.650Z,9.91
2022-10-11T02:22:34.923Z,9.92
2022-10-11T02:25:09.382Z,9.94
2022-10-11T02:27:40.872Z,9.95
2022-10-11T02:30:12.295Z,9.96
2022-10-11T02:32:44.663Z,9.96
2022-10-11T02:35:13.862Z,9.97
2022-10-11T02:38:02.651Z,9.97
2022-10-11T02:40:38.081Z,9.96
2022-10-11T02:43:31.648Z,9.95
2022-10-11T02:46:03.687Z,9.93
2022-10-11T02:48:36.629Z,9.92
2022-10-11T02:51:05.797Z,9.92
2022-10-11T02:53:34.419Z,9.92
2022-10-11T02:56:02.219Z,9.93
2022-10-11T02:58:31.109Z,9.94
2022-10-11T03:00:58.761Z,9.95
2022-10-11T03:03:28.650Z,9.96
2022-10-11T03:06:03.074Z,9.98
2022-10-11T03:08:33.323Z,9.99
2022-10-11T03:11:01.014Z,10.00
2022-10-11T03:13:28.646Z,10.01
2022-10-11T03:16:03.307Z,10.02
2022-10-11T03:18:33.821Z,10.03
2022-10-11T03:21:02.810Z,10.04
2022-10-11T03:23:30.542Z,10.04
2022-10-11T03:25:58.260Z,10.04
2022-10-11T03:28:25.998Z,10.04
2022-10-11T03:30:53.749Z,10.05
2022-10-11T03:33:22.618Z,10.05
2022-10-11T03:35:50.666Z,10.05
2022-10-11T03:38:21.945Z,10.04
2022-10-11T03:40:49.987Z,10.05
2022-10-11T03:43:18.306Z,10.05
2022-10-11T03:45:46.064Z,10.06
2022-10-11T03:48:13.790Z,10.07
2022-10-11T03:50:42.466Z,10.07
2022-10-11T03:53:11.434Z,10.06
2022-10-11T03:55:40.748Z,10.05
2022-10-11T03:58:08.470Z,10.04
2022-10-11T04:00:37.167Z,10.05
2022-10-11T04:03:07.377Z,10.05
2022-10-11T04:05:34.973Z,10.03
2022-10-11T04:08:05.429Z,10.02
2022-10-11T04:10:37.091Z,10.00
2022-10-11T04:13:05.995Z,9.98
2022-10-11T04:15:34.237Z,9.97
2022-10-11T04:18:01.850Z,9.96
2022-10-11T04:20:29.528Z,9.94
2022-10-11T04:22:57.171Z,9.93
2022-10-11T04:25:26.024Z,9.92
2022-10-11T04:27:53.767Z,9.92
2022-10-11T04:30:22.842Z,9.91
2022-10-11T04:32:51.977Z,9.91
2022-10-11T04:35:19.695Z,9.92
2022-10-11T04:37:47.379Z,9.92
2022-10-11T04:40:15.062Z,9.92
2022-10-11T04:42:42.777Z,9.94
2022-10-11T04:45:11.292Z,9.96
2022-10-11T04:47:41.525Z,9.98
2022-10-11T04:50:09.316Z,10.01
2022-10-11T04:52:37.062Z,10.04
2022-10-11T04:55:05.184Z,10.08
2022-10-11T04:57:33.808Z,10.12
2022-10-11T05:00:01.546Z,10.19
2022-10-11T05:02:31.176Z,10.25
2022-10-11T05:04:58.917Z,10.31
2022-10-11T05:07:26.604Z,10.37
2022-10-11T05:09:54.662Z,10.44
2022-10-11T05:12:22.461Z,10.50
2022-10-11T05:14:50.107Z,10.56
2022-10-11T05:17:17.787Z,10.62
2022-10-11T05:19:45.473Z,10.67
2022-10-11T05:22:13.237Z,10.72
2022-10-11T05:24:40.916Z,10.78
2022-10-11T05:27:08.819Z,10.83
2022-10-11T05:29:36.588Z,10.89
2022-10-11T05:32:04.584Z,10.93
2022-10-11T05:34:32.498Z,10.98
2022-10-11T05:37:00.134Z,11.03
2022-10-11T05:39:28.668Z,11.10
2022-10-11T05:41:57.488Z,11.15
2022-10-11T05:44:25.353Z,11.21
2022-10-11T05:46:53.019Z,11.27
2022-10-11T05:49:20.715Z,11.33
2022-10-11T05:51:48.411Z,11.38
2022-10-11T05:54:16.058Z,11.42
2022-10-11T05:56:43.804Z,11.46
2022-10-11T05:59:11.521Z,11.50
2022-10-11T06:01:39.277Z,11.55
2022-10-11T06:04:09.445Z,11.59
2022-10-11T06:06:37.169Z,11.64
2022-10-11T06:09:04.782Z,11.70
2022-10-11T06:11:33.028Z,11.78
2022-10-11T06:14:01.936Z,11.88
2022-10-11T06:16:29.680Z,11.98
2022-10-11T06:18:58.531Z,12.05
2022-10-11T06:21:26.368Z,12.10
2022-10-11T06:24:00.854Z,12.13
2022-10-11T06:26:33.042Z,12.16
2022-10-11T06:29:01.977Z,12.18
2022-10-11T06:31:29.682Z,12.19
2022-10-11T06:34:00.516Z,12.24
2022-10-11T06:36:29.945Z,12.34
2022-10-11T06:38:57.682Z,12.43
2022-10-11T06:41:29.799Z,12.52
2022-10-11T06:43:58.722Z,12.59
2022-10-11T06:46:30.424Z,12.66
2022-10-11T06:48:59.299Z,12.74
2022-10-11T06:51:31.075Z,12.83
2022-10-11T06:54:01.911Z,12.90
2022-10-11T06:56:31.843Z,12.95
2022-10-11T06:59:01.169Z,12.98
2022-10-11T07:01:28.918Z,13.02
2022-10-11T07:04:01.258Z,13.05
2022-10-11T07:06:31.580Z,13.09
2022-10-11T07:09:01.254Z,13.10
2022-10-11T07:11:29.165Z,13.13
2022-10-11T07:14:01.583Z,13.19
2022-10-11T07:16:30.706Z,13.27
2022-10-11T07:19:01.105Z,13.35
2022-10-11T07:21:32.324Z,13.41
2022-10-11T07:24:01.795Z,13.47
2022-10-11T07:26:37.472Z,13.53
2022-10-11T07:29:10.835Z,13.61
2022-10-11T07:31:42.448Z,13.71
2022-10-11T07:34:12.002Z,13.86
2022-10-11T07:36:41.095Z,14.03
2022-10-11T07:39:09.900Z,14.16
2022-10-11T07:41:44.685Z,14.28
2022-10-11T07:44:17.154Z,14.43
2022-10-11T07:46:44.798Z,14.58
2022-10-11T07:49:12.537Z,14.74
2022-10-11T07:51:40.237Z,14.90
2022-10-11T07:54:09.949Z,14.99
2022-10-11T07:56:38.890Z,15.05
2022-10-11T07:59:06.730Z,15.16
2022-10-11T08:01:34.889Z,15.27
2022-10-11T08:04:03.310Z,15.40
2022-10-11T08:06:33.544Z,15.54
2022-10-11T08:09:01.840Z,15.68
2022-10-11T08:11:38.576Z,15.83
2022-10-11T08:14:12.496Z,15.99
2022-10-11T08:16:41.815Z,16.18
2022-10-11T08:19:10.393Z,16.35
2022-10-11T08:21:38.038Z,16.45
2022-10-11T08:24:07.725Z,16.43
2022-10-11T08:26:35.600Z,16.32
2022-10-11T08:29:06.243Z,16.23
2022-10-11T08:31:35.806Z,16.20
2022-10-11T08:34:04.801Z,16.13
2022-10-11T08:36:33.674Z,16.06
2022-10-11T08:39:03.299Z,15.96
2022-10-11T08:41:55.262Z,15.93
2022-10-11T08:47:37.875Z,15.93
2022-10-11T08:50:16.700Z,15.97
2022-10-11T08:52:56.218Z,16.01
2022-10-11T08:55:47.875Z,16.02
2022-10-11T08:58:29.921Z,16.04
2022-10-11T09:00:59.398Z,16.08
2022-10-11T09:03:40.482Z,16.11
2022-10-11T09:06:23.595Z,16.20
2022-10-11T09:09:26.509Z,16.24
2022-10-11T09:12:06.263Z,16.27
2022-10-11T09:14:40.497Z,16.25
2022-10-11T09:17:20.472Z,16.18
2022-10-11T09:20:13.305Z,16.10
2022-10-11T09:23:02.702Z,15.98
2022-10-11T09:25:34.971Z,15.86
2022-10-11T09:28:13.477Z,15.79
2022-10-11T09:30:53.754Z,15.72
2022-10-11T09:33:33.941Z,15.68
2022-10-11T09:36:12.784Z,15.64
2022-10-11T09:39:06.770Z,15.58
2022-10-11T09:41:48.934Z,15.49
2022-10-11T09:44:28.569Z,15.38
2022-10-11T09:46:58.876Z,15.25
2022-10-11T09:49:38.746Z,15.15
2022-10-11T09:52:17.561Z,15.10
2022-10-11T09:54:55.390Z,15.06
2022-10-11T09:57:27.438Z,15.01
2022-10-11T10:00:21.761Z,14.97
2022-10-11T10:02:57.255Z,14.92
2022-10-11T10:05:36.816Z,14.86
2022-10-11T10:08:08.485Z,14.78
2022-10-11T10:10:41.605Z,14.71
2022-10-11T10:13:24.314Z,14.66
2022-10-11T10:16:01.102Z,14.61
2022-10-11T10:18:52.787Z,14.62
2022-10-11T10:21:29.530Z,14.69
2022-10-11T10:24:04.325Z,14.78
2022-10-11T10:26:34.240Z,14.94
2022-10-11T10:29:08.206Z,15.09
2022-10-11T10:32:01.851Z,15.18
2022-10-11T10:34:37.767Z,15.26
2022-10-11T10:37:08.491Z,15.34
2022-10-11T10:39:55.047Z,15.43
2022-10-11T10:42:24.570Z,15.52
2022-10-11T10:44:59.636Z,15.61
2022-10-11T10:47:57.015Z,15.75
2022-10-11T10:50:41.119Z,16.10
2022-10-11T10:53:20.756Z,16.40
2022-10-11T10:56:01.081Z,16.62
2022-10-11T10:58:45.682Z,16.74
2022-10-11T11:01:28.762Z,16.76
2022-10-11T11:03:59.703Z,16.76
2022-10-11T11:07:01.307Z,16.75
2022-10-11T11:09:50.357Z,16.75
2022-10-11T11:12:42.494Z,16.80
2022-10-11T11:15:29.188Z,16.89
2022-10-11T11:18:26.242Z,17.00
2022-10-11T11:21:26.784Z,17.03
2022-10-11T11:24:18.647Z,17.02
2022-10-11T11:27:11.447Z,17.01
2022-10-11T11:29:54.540Z,17.04
2022-10-11T11:32:37.240Z,17.14
2022-10-11T11:35:18.068Z,17.17
2022-10-11T11:37:55.551Z,17.16
2022-10-11T11:40:38.343Z,17.14
2022-10-11T11:43:24.202Z,17.15
2022-10-11T11:46:01.223Z,17.15
2022-10-11T11:48:29.050Z,17.14
2022-10-11T11:51:05.323Z,17.10
2022-10-11T11:53:43.696Z,17.05
2022-10-11T11:56:50.397Z,17.02
2022-10-11T11:59:29.830Z,17.04
2022-10-11T12:02:12.992Z,17.09
2022-10-11T12:04:49.408Z,17.17
2022-10-11T12:07:21.208Z,17.24
2022-10-11T12:10:13.951Z,17.31
2022-10-11T12:12:43.325Z,17.36
2022-10-11T12:15:26.253Z,17.34
2022-10-11T12:17:58.116Z,17.29
2022-10-11T12:20:30.005Z,17.26
2022-10-11T12:23:06.638Z,17.21
2022-10-11T12:25:39.230Z,17.18
2022-10-11T12:28:40.533Z,17.27
2022-10-11T12:31:29.436Z,17.41
2022-10-11T12:34:02.018Z,17.47
2022-10-11T12:36:29.780Z,17.59
2022-10-11T12:39:45.654Z,17.74
2022-10-11T12:42:25.064Z,17.87
2022-10-11T12:45:10.887Z,17.89
2022-10-11T12:47:48.801Z,17.80
2022-10-11T12:50:41.376Z,17.70
2022-10-11T12:53:33.500Z,17.60
2022-10-11T12:56:27.449Z,17.51
2022-10-11T12:59:06.394Z,17.43
2022-10-11T13:01:47.698Z,17.37
2022-10-11T13:04:21.624Z,17.34
2022-10-11T13:06:56.913Z,17.29
2022-10-11T13:09:29.456Z,17.22
2022-10-11T13:12:14.461Z,17.17
2022-10-11T13:14:55.425Z,17.12
2022-10-11T13:17:38.639Z,17.05
2022-10-11T13:20:20.050Z,16.98
2022-10-11T13:22:53.132Z,16.94
2022-10-11T13:25:27.994Z,16.89
2022-10-11T13:27:59.624Z,16.81
2022-10-11T13:30:31.958Z,16.71
2022-10-11T13:33:01.122Z,16.62
2022-10-11T13:35:35.221Z,16.54
2022-10-11T13:38:09.631Z,16.48
2022-10-11T13:40:38.747Z,16.43
2022-10-11T13:43:06.585Z,16.39
2022-10-11T13:45:37.094Z,16.32
2022-10-11T13:48:15.870Z,16.26
2022-10-11T13:50:52.643Z,16.20
2022-10-11T13:53:25.476Z,16.16
2022-10-11T13:55:59.999Z,16.14
2022-10-11T13:58:40.486Z,16.12
2022-10-11T14:01:20.913Z,16.10
2022-10-11T14:04:17.462Z,16.11
2022-10-11T14:06:53.040Z,16.11
2022-10-11T14:09:29.036Z,16.08
2022-10-11T14:12:26.985Z,16.04
2022-10-11T14:14:54.853Z,15.99
2022-10-11T14:17:39.285Z,15.95
2022-10-11T14:20:21.143Z,15.91
2022-10-11T14:22:54.087Z,15.87
2022-10-11T14:25:22.180Z,15.82
2022-10-11T14:27:55.184Z,15.79
2022-10-11T14:30:27.599Z,15.76
2022-10-11T14:33:01.560Z,15.73
2022-10-11T14:35:32.518Z,15.71
2022-10-11T14:38:01.545Z,15.70
2022-10-11T14:40:31.944Z,15.68
2022-10-11T14:43:00.835Z,15.66
2022-10-11T14:45:30.138Z,15.66
2022-10-11T14:47:58.843Z,15.64
2022-10-11T14:50:43.209Z,15.62
2022-10-11T14:53:11.935Z,15.61
2022-10-11T14:55:41.766Z,15.60
2022-10-11T14:58:13.656Z,15.59
2022-10-11T15:00:42.058Z,15.57
2022-10-11T15:03:09.879Z,15.57
2022-10-11T15:05:39.370Z,15.57
2022-10-11T15:08:08.492Z,15.55
2022-10-11T15:10:41.185Z,15.54
2022-10-11T15:13:10.274Z,15.54
2022-10-11T15:15:41.624Z,15.53
2022-10-11T15:18:13.623Z,15.53
2022-10-11T15:20:46.213Z,15.51
2022-10-11T15:23:15.277Z,15.50
2022-10-11T15:25:45.621Z,15.49
2022-10-11T15:28:30.113Z,15.46
2022-10-11T15:30:59.156Z,15.43
2022-10-11T15:33:28.093Z,15.38
2022-10-11T15:35:55.920Z,15.32
2022-10-11T15:38:26.144Z,15.27
2022-10-11T15:40:55.326Z,15.20
2022-10-11T15:43:25.685Z,15.13
2022-10-11T15:45:57.927Z,15.06
2022-10-11T15:48:27.900Z,14.98
2022-10-11T15:50:55.736Z,14.92
2022-10-11T15:53:30.175Z,14.85
2022-10-11T15:56:05.888Z,14.78
2022-10-11T15:58:40.378Z,14.70
2022-10-11T16:01:19.219Z,14.63
2022-10-11T16:03:50.805Z,14.56
2022-10-11T16:06:19.437Z,14.50
2022-10-11T16:08:48.034Z,14.44
2022-10-11T16:11:17.979Z,14.37
2022-10-11T16:13:45.621Z,14.31
2022-10-11T16:16:14.306Z,14.24
2022-10-11T16:18:42.039Z,14.17
2022-10-11T16:21:16.516Z,14.10
2022-10-11T16:23:44.139Z,14.05
2022-10-11T16:26:16.604Z,13.99
2022-10-11T16:28:48.728Z,13.93
2022-10-11T16:31:20.757Z,13.85
2022-10-11T16:33:50.470Z,13.79
2022-10-11T16:36:41.288Z,13.71
2022-10-11T16:39:14.812Z,13.63
2022-10-11T16:41:44.677Z,13.55
2022-10-11T16:44:20.024Z,13.47
2022-10-11T16:46:49.485Z,13.39
2022-10-11T16:49:22.626Z,13.31
2022-10-11T16:51:55.233Z,13.23
2022-10-11T16:54:23.041Z,13.16
2022-10-11T16:56:50.826Z,13.09
2022-10-11T16:59:20.011Z,13.03
2022-10-11T17:01:49.404Z,12.98
2022-10-11T17:04:17.237Z,12.93
2022-10-11T17:06:46.000Z,12.87
2022-10-11T17:09:17.205Z,12.82
2022-10-11T17:11:45.613Z,12.76
2022-10-11T17:14:14.469Z,12.70
2022-10-11T17:16:43.448Z,12.65
2022-10-11T17:19:17.467Z,12.58
2022-10-11T17:21:45.310Z,12.52
2022-10-11T17:24:13.009Z,12.47
2022-10-11T17:26:40.723Z,12.41
2022-10-11T17:29:18.977Z,12.35
2022-10-11T17:31:49.414Z,12.29
2022-10-11T17:34:18.491Z,12.24
2022-10-11T17:36:48.167Z,12.20
2022-10-11T17:39:20.953Z,12.16
2022-10-11T17:41:50.070Z,12.13
2022-10-11T17:44:19.399Z,12.08
2022-10-11T17:46:49.187Z,12.04
2022-10-11T17:49:17.941Z,11.99
2022-10-11T17:51:46.204Z,11.95
2022-10-11T17:54:15.378Z,11.91
2022-10-11T17:56:43.121Z,11.88
2022-10-11T17:59:17.798Z,11.85
2022-10-11T18:01:47.054Z,11.84
2022-10-11T18:04:19.142Z,11.82
2022-10-11T18:06:49.138Z,11.80
2022-10-11T18:09:18.866Z,11.79
2022-10-11T18:11:48.303Z,11.76
2022-10-11T18:14:17.333Z,11.72
2022-10-11T18:16:45.691Z,11.71
2022-10-11T18:19:14.987Z,11.70
2022-10-11T18:21:43.985Z,11.67
2022-10-11T18:24:16.393Z,11.65
2022-10-11T18:26:49.922Z,11.63
2022-10-11T18:29:17.495Z,11.61
2022-10-11T18:31:46.500Z,11.59
2022-10-11T18:34:19.094Z,11.57
2022-10-11T18:36:47.414Z,11.54
2022-10-11T18:39:15.457Z,11.52
2022-10-11T18:41:45.462Z,11.50
2022-10-11T18:44:15.749Z,11.47
2022-10-11T18:46:44.861Z,11.46
2022-10-11T18:49:14.779Z,11.43
2022-10-11T18:51:45.076Z,11.41
2022-10-11T18:54:18.336Z,11.39
2022-10-11T18:56:50.127Z,11.37
2022-10-11T18:59:18.485Z,11.35
2022-10-11T19:01:53.166Z,11.34
2022-10-11T19:04:22.116Z,11.32
2022-10-11T19:06:53.660Z,11.30
2022-10-11T19:09:26.176Z,11.28
2022-10-11T19:11:57.417Z,11.25
2022-10-11T19:14:30.291Z,11.22
2022-10-11T19:16:58.731Z,11.20
2022-10-11T19:19:30.683Z,11.18
2022-10-11T19:22:00.823Z,11.15
2022-10-11T19:24:31.680Z,11.12
2022-10-11T19:27:03.417Z,11.10
2022-10-11T19:29:37.523Z,11.06
2022-10-11T19:32:08.213Z,11.03
2022-10-11T19:34:37.057Z,10.99
2022-10-11T19:37:06.009Z,10.96
2022-10-11T19:39:36.196Z,10.93
2022-10-11T19:42:05.035Z,10.89
2022-10-11T19:44:38.720Z,10.86
2022-10-11T19:47:10.594Z,10.83
2022-10-11T19:49:38.296Z,10.79
2022-10-11T19:52:07.156Z,10.75
2022-10-11T19:54:35.902Z,10.71
2022-10-11T19:57:03.773Z,10.68
2022-10-11T19:59:31.462Z,10.65
2022-10-11T20:01:59.444Z,10.62
2022-10-11T20:04:51.074Z,10.60
2022-10-11T20:07:16.195Z,10.58
2022-10-11T20:09:44.035Z,10.55
2022-10-11T20:12:12.904Z,10.54
2022-10-11T20:14:40.681Z,10.52
2022-10-11T20:17:08.381Z,10.49
2022-10-11T20:19:36.084Z,10.47
2022-10-11T20:22:06.035Z,10.44
2022-10-11T20:24:35.325Z,10.41
2022-10-11T20:27:07.570Z,10.38
2022-10-11T20:29:37.495Z,10.36
2022-10-11T20:32:08.909Z,10.33
2022-10-11T20:34:40.517Z,10.29
2022-10-11T20:37:08.407Z,10.25
2022-10-11T20:39:37.190Z,10.23
2022-10-11T20:42:05.938Z,10.20
2022-10-11T20:44:33.590Z,10.15
2022-10-11T20:47:04.011Z,10.11
2022-10-11T20:49:33.110Z,10.07
2022-10-11T20:52:01.339Z,10.02
2022-10-11T20:54:31.691Z,9.96
2022-10-11T20:57:01.227Z,9.92
2022-10-11T20:59:29.016Z,9.88
2022-10-11T21:01:57.843Z,9.83
2022-10-11T21:04:26.989Z,9.78
2022-10-11T21:06:55.920Z,9.73
2022-10-11T21:09:24.202Z,9.68
2022-10-11T21:11:52.015Z,9.65
2022-10-11T21:14:19.733Z,9.64
2022-10-11T21:16:47.689Z,9.61
2022-10-11T21:19:16.867Z,9.56
2022-10-11T21:21:53.331Z,9.49
2022-10-11T21:24:22.716Z,9.43
2022-10-11T21:26:51.534Z,9.37
2022-10-11T21:29:19.312Z,9.32
2022-10-11T21:31:50.295Z,9.27
2022-10-11T21:34:18.099Z,9.22
2022-10-11T21:36:46.905Z,9.16
2022-10-11T21:39:15.854Z,9.09
2022-10-11T21:41:43.539Z,9.01
2022-10-11T21:44:11.264Z,8.95
2022-10-11T21:49:26.685Z,8.80
2022-10-11T21:51:54.433Z,8.76
2022-10-11T21:54:22.083Z,8.72
2022-10-11T21:56:49.771Z,8.68
2022-10-11T21:59:17.397Z,8.62
2022-10-11T22:01:45.167Z,8.60
2022-10-11T22:04:12.925Z,8.54
2022-10-11T22:06:40.700Z,8.50
2022-10-11T22:09:10.690Z,8.47
2022-10-11T22:11:38.476Z,8.45
2022-10-11T22:14:06.283Z,8.43
2022-10-11T22:16:34.771Z,8.38
2022-10-11T22:19:05.261Z,8.33
2022-10-11T22:21:32.962Z,8.30
2022-10-11T22:24:00.907Z,8.27
2022-10-11T22:26:31.413Z,8.23
2022-10-11T22:29:00.679Z,8.19
2022-10-11T22:31:30.580Z,8.14
2022-10-11T22:34:01.702Z,8.07
2022-10-11T22:36:30.783Z,8.02
2022-10-11T22:38:59.840Z,7.96
2022-10-11T22:41:29.501Z,7.91
2022-10-11T22:43:57.262Z,7.86
2022-10-11T22:46:25.038Z,7.80
2022-10-11T22:48:52.727Z,7.73
2022-10-11T22:51:20.442Z,7.68
2022-10-11T22:53:49.610Z,7.61
2022-10-11T22:56:17.362Z,7.56
2022-10-11T22:58:46.458Z,7.51
2022-10-11T23:01:16.598Z,7.44
2022-10-11T23:03:51.700Z,7.38
2022-10-11T23:06:20.917Z,7.31
2022-10-11T23:08:51.004Z,7.25
2022-10-11T23:11:18.659Z,7.20
2022-10-11T23:13:46.344Z,7.15
2022-10-11T23:16:14.171Z,7.09
2022-10-11T23:18:43.273Z,7.05
2022-10-11T23:21:14.155Z,7.00
2022-10-11T23:23:42.884Z,6.96
2022-10-11T23:26:15.282Z,6.92
2022-10-11T23:28:44.744Z,6.88
2022-10-11T23:31:17.520Z,6.83
2022-10-11T23:33:47.560Z,6.78
2022-10-11T23:36:24.839Z,6.73
2022-10-11T23:38:57.895Z,6.68
2022-10-11T23:41:30.032Z,6.61
2022-10-11T23:43:58.796Z,6.56
2022-10-11T23:46:27.143Z,6.51
2022-10-11T23:48:54.827Z,6.46
2022-10-11T23:51:22.617Z,6.43
2022-10-11T23:53:50.393Z,6.41
2022-10-11T23:56:18.106Z,6.37
2022-10-11T23:58:45.877Z,6.35
